sensor_id;sensor_type;location;lat;lon;timestamp;P1;durP1;ratioP1;P2;durP2;ratioP2
487;SDS011;16586;48.976;9.584;2023-01-06T00:00:19;1.95;;;1.50;;
487;SDS011;16586;48.976;9.584;2023-01-06T00:02:46;1.80;;;1.40;;
487;SDS011;16586;48.976;9.584;2023-01-06T00:05:16;1.90;;;1.50;;
487;SDS011;16586;48.976;9.584;2023-01-06T00:07:43;2.20;;;1.80;;
487;SDS011;16586;48.976;9.584;2023-01-06T00:10:10;2.58;;;2.00;;
487;SDS011;16586;48.976;9.584;2023-01-06T00:12:37;2.17;;;2.00;;
487;SDS011;16586;48.976;9.584;2023-01-06T00:15:05;3.30;;;2.28;;
487;SDS011;16586;48.976;9.584;2023-01-06T00:17:33;3.30;;;2.25;;
487;SDS011;16586;48.976;9.584;2023-01-06T00:19:59;3.00;;;2.05;;
487;SDS011;16586;48.976;9.584;2023-01-06T00:22:26;2.80;;;2.40;;
487;SDS011;16586;48.976;9.584;2023-01-06T00:24:53;2.50;;;2.35;;
487;SDS011;16586;48.976;9.584;2023-01-06T00:27:19;2.70;;;2.03;;
487;SDS011;16586;48.976;9.584;2023-01-06T00:29:46;2.13;;;1.80;;
487;SDS011;16586;48.976;9.584;2023-01-06T00:32:16;2.00;;;1.80;;
487;SDS011;16586;48.976;9.584;2023-01-06T00:34:43;2.65;;;2.40;;
487;SDS011;16586;48.976;9.584;2023-01-06T00:37:10;2.13;;;1.80;;
487;SDS011;16586;48.976;9.584;2023-01-06T00:39:37;2.63;;;1.90;;
487;SDS011;16586;48.976;9.584;2023-01-06T00:42:03;2.53;;;2.00;;
487;SDS011;16586;48.976;9.584;2023-01-06T00:44:31;2.40;;;1.70;;
487;SDS011;16586;48.976;9.584;2023-01-06T00:46:59;2.42;;;1.83;;
487;SDS011;16586;48.976;9.584;2023-01-06T00:49:28;2.40;;;1.90;;
487;SDS011;16586;48.976;9.584;2023-01-06T00:51:55;2.00;;;1.70;;
487;SDS011;16586;48.976;9.584;2023-01-06T00:54:22;2.60;;;2.00;;
487;SDS011;16586;48.976;9.584;2023-01-06T00:56:49;3.15;;;1.90;;
487;SDS011;16586;48.976;9.584;2023-01-06T00:59:17;2.13;;;2.00;;
487;SDS011;16586;48.976;9.584;2023-01-06T01:01:46;2.10;;;1.97;;
487;SDS011;16586;48.976;9.584;2023-01-06T01:04:14;2.80;;;2.00;;
487;SDS011;16586;48.976;9.584;2023-01-06T01:06:43;2.00;;;1.80;;
487;SDS011;16586;48.976;9.584;2023-01-06T01:09:11;1.80;;;1.70;;
487;SDS011;16586;48.976;9.584;2023-01-06T01:11:41;1.90;;;1.50;;
487;SDS011;16586;48.976;9.584;2023-01-06T01:14:25;2.80;;;2.00;;
487;SDS011;16586;48.976;9.584;2023-01-06T01:16:52;3.20;;;2.30;;
487;SDS011;16586;48.976;9.584;2023-01-06T01:19:19;3.60;;;2.40;;
487;SDS011;16586;48.976;9.584;2023-01-06T01:21:50;4.82;;;3.00;;
487;SDS011;16586;48.976;9.584;2023-01-06T01:24:17;2.85;;;2.60;;
487;SDS011;16586;48.976;9.584;2023-01-06T01:26:44;2.40;;;2.00;;
487;SDS011;16586;48.976;9.584;2023-01-06T01:29:11;2.80;;;2.43;;
487;SDS011;16586;48.976;9.584;2023-01-06T01:31:39;3.10;;;2.30;;
487;SDS011;16586;48.976;9.584;2023-01-06T01:34:07;2.83;;;1.90;;
487;SDS011;16586;48.976;9.584;2023-01-06T01:36:35;2.40;;;2.00;;
487;SDS011;16586;48.976;9.584;2023-01-06T01:39:04;2.40;;;2.25;;
487;SDS011;16586;48.976;9.584;2023-01-06T01:41:30;2.20;;;1.95;;
487;SDS011;16586;48.976;9.584;2023-01-06T01:43:58;2.10;;;1.70;;
487;SDS011;16586;48.976;9.584;2023-01-06T01:46:27;2.10;;;1.67;;
487;SDS011;16586;48.976;9.584;2023-01-06T01:48:57;2.65;;;1.98;;
487;SDS011;16586;48.976;9.584;2023-01-06T01:51:27;1.92;;;1.40;;
487;SDS011;16586;48.976;9.584;2023-01-06T01:53:58;2.10;;;1.40;;
487;SDS011;16586;48.976;9.584;2023-01-06T01:56:31;1.40;;;1.10;;
487;SDS011;16586;48.976;9.584;2023-01-06T01:59:02;1.63;;;1.10;;
487;SDS011;16586;48.976;9.584;2023-01-06T02:01:31;2.30;;;1.40;;
487;SDS011;16586;48.976;9.584;2023-01-06T02:03:58;1.73;;;1.20;;
487;SDS011;16586;48.976;9.584;2023-01-06T02:06:26;1.50;;;1.30;;
487;SDS011;16586;48.976;9.584;2023-01-06T02:08:56;2.13;;;1.33;;
487;SDS011;16586;48.976;9.584;2023-01-06T02:11:28;1.80;;;1.10;;
487;SDS011;16586;48.976;9.584;2023-01-06T02:14:00;1.50;;;1.00;;
487;SDS011;16586;48.976;9.584;2023-01-06T02:16:36;1.85;;;0.95;;
487;SDS011;16586;48.976;9.584;2023-01-06T02:19:19;1.25;;;0.90;;
487;SDS011;16586;48.976;9.584;2023-01-06T02:22:08;1.65;;;1.10;;
487;SDS011;16586;48.976;9.584;2023-01-06T02:24:58;1.10;;;0.90;;
487;SDS011;16586;48.976;9.584;2023-01-06T02:27:46;1.80;;;1.02;;
487;SDS011;16586;48.976;9.584;2023-01-06T02:30:44;1.00;;;0.70;;
487;SDS011;16586;48.976;9.584;2023-01-06T02:33:29;1.13;;;0.80;;
487;SDS011;16586;48.976;9.584;2023-01-06T02:36:05;1.30;;;1.00;;
487;SDS011;16586;48.976;9.584;2023-01-06T02:38:49;1.20;;;0.85;;
487;SDS011;16586;48.976;9.584;2023-01-06T02:41:30;1.25;;;1.02;;
487;SDS011;16586;48.976;9.584;2023-01-06T02:44:05;1.77;;;1.10;;
487;SDS011;16586;48.976;9.584;2023-01-06T02:46:45;1.30;;;1.10;;
487;SDS011;16586;48.976;9.584;2023-01-06T02:49:23;1.30;;;0.90;;
487;SDS011;16586;48.976;9.584;2023-01-06T02:51:55;1.17;;;1.10;;
487;SDS011;16586;48.976;9.584;2023-01-06T02:54:27;1.42;;;1.02;;
487;SDS011;16586;48.976;9.584;2023-01-06T02:57:01;1.40;;;0.90;;
487;SDS011;16586;48.976;9.584;2023-01-06T02:59:37;2.15;;;0.95;;
487;SDS011;16586;48.976;9.584;2023-01-06T03:02:08;1.50;;;1.10;;
487;SDS011;16586;48.976;9.584;2023-01-06T03:04:39;1.10;;;0.85;;
487;SDS011;16586;48.976;9.584;2023-01-06T03:07:08;1.25;;;0.90;;
487;SDS011;16586;48.976;9.584;2023-01-06T03:09:39;1.70;;;0.90;;
487;SDS011;16586;48.976;9.584;2023-01-06T03:12:06;1.80;;;0.90;;
487;SDS011;16586;48.976;9.584;2023-01-06T03:14:38;2.10;;;1.20;;
487;SDS011;16586;48.976;9.584;2023-01-06T03:17:09;2.03;;;1.20;;
487;SDS011;16586;48.976;9.584;2023-01-06T03:19:38;1.60;;;1.10;;
487;SDS011;16586;48.976;9.584;2023-01-06T03:22:05;1.75;;;1.20;;
487;SDS011;16586;48.976;9.584;2023-01-06T03:24:33;1.50;;;1.20;;
487;SDS011;16586;48.976;9.584;2023-01-06T03:27:01;1.70;;;1.30;;
487;SDS011;16586;48.976;9.584;2023-01-06T03:29:29;1.42;;;1.10;;
487;SDS011;16586;48.976;9.584;2023-01-06T03:31:58;1.20;;;0.90;;
487;SDS011;16586;48.976;9.584;2023-01-06T03:34:33;1.50;;;0.90;;
487;SDS011;16586;48.976;9.584;2023-01-06T03:37:10;1.80;;;1.20;;
487;SDS011;16586;48.976;9.584;2023-01-06T03:39:47;1.90;;;1.38;;
487;SDS011;16586;48.976;9.584;2023-01-06T03:42:20;1.70;;;1.20;;
487;SDS011;16586;48.976;9.584;2023-01-06T03:45:13;1.60;;;1.00;;
487;SDS011;16586;48.976;9.584;2023-01-06T03:47:55;1.80;;;1.00;;
487;SDS011;16586;48.976;9.584;2023-01-06T03:50:31;1.35;;;1.00;;
487;SDS011;16586;48.976;9.584;2023-01-06T03:53:02;1.30;;;1.00;;
487;SDS011;16586;48.976;9.584;2023-01-06T03:55:41;1.50;;;0.80;;
487;SDS011;16586;48.976;9.584;2023-01-06T03:58:11;1.40;;;1.00;;
487;SDS011;16586;48.976;9.584;2023-01-06T04:00:39;1.30;;;0.90;;
487;SDS011;16586;48.976;9.584;2023-01-06T04:03:07;1.57;;;1.30;;
487;SDS011;16586;48.976;9.584;2023-01-06T04:05:39;1.15;;;0.90;;
487;SDS011;16586;48.976;9.584;2023-01-06T04:08:05;1.50;;;1.10;;
487;SDS011;16586;48.976;9.584;2023-01-06T04:10:32;1.50;;;0.90;;
487;SDS011;16586;48.976;9.584;2023-01-06T04:12:59;1.42;;;1.20;;
487;SDS011;16586;48.976;9.584;2023-01-06T04:15:25;1.60;;;0.80;;
487;SDS011;16586;48.976;9.584;2023-01-06T04:17:53;0.95;;;0.70;;
487;SDS011;16586;48.976;9.584;2023-01-06T04:20:21;1.80;;;1.10;;
487;SDS011;16586;48.976;9.584;2023-01-06T04:22:51;1.30;;;1.20;;
487;SDS011;16586;48.976;9.584;2023-01-06T04:25:18;1.80;;;1.30;;
487;SDS011;16586;48.976;9.584;2023-01-06T04:27:45;2.75;;;1.50;;
487;SDS011;16586;48.976;9.584;2023-01-06T04:30:12;1.80;;;1.40;;
487;SDS011;16586;48.976;9.584;2023-01-06T04:32:38;1.77;;;1.67;;
487;SDS011;16586;48.976;9.584;2023-01-06T04:35:06;1.70;;;1.70;;
487;SDS011;16586;48.976;9.584;2023-01-06T04:37:33;2.30;;;2.10;;
487;SDS011;16586;48.976;9.584;2023-01-06T04:40:01;1.80;;;1.70;;
487;SDS011;16586;48.976;9.584;2023-01-06T04:42:29;1.90;;;1.80;;
487;SDS011;16586;48.976;9.584;2023-01-06T04:45:16;1.80;;;1.58;;
487;SDS011;16586;48.976;9.584;2023-01-06T04:47:43;1.77;;;1.70;;
487;SDS011;16586;48.976;9.584;2023-01-06T04:50:10;2.00;;;1.90;;
487;SDS011;16586;48.976;9.584;2023-01-06T04:52:36;1.80;;;1.70;;
487;SDS011;16586;48.976;9.584;2023-01-06T04:55:05;1.80;;;1.70;;
487;SDS011;16586;48.976;9.584;2023-01-06T04:57:32;1.80;;;1.80;;
487;SDS011;16586;48.976;9.584;2023-01-06T04:59:59;1.55;;;1.52;;
487;SDS011;16586;48.976;9.584;2023-01-06T05:02:26;2.00;;;1.50;;
487;SDS011;16586;48.976;9.584;2023-01-06T05:04:52;1.85;;;1.75;;
487;SDS011;16586;48.976;9.584;2023-01-06T05:07:19;1.50;;;1.40;;
487;SDS011;16586;48.976;9.584;2023-01-06T05:09:46;1.50;;;1.50;;
487;SDS011;16586;48.976;9.584;2023-01-06T05:12:14;1.90;;;1.65;;
487;SDS011;16586;48.976;9.584;2023-01-06T05:14:41;1.70;;;1.50;;
487;SDS011;16586;48.976;9.584;2023-01-06T05:17:08;1.60;;;1.40;;
487;SDS011;16586;48.976;9.584;2023-01-06T05:19:34;1.80;;;1.70;;
487;SDS011;16586;48.976;9.584;2023-01-06T05:22:01;2.05;;;1.45;;
487;SDS011;16586;48.976;9.584;2023-01-06T05:24:28;4.53;;;2.33;;
487;SDS011;16586;48.976;9.584;2023-01-06T05:26:55;2.50;;;1.80;;
487;SDS011;16586;48.976;9.584;2023-01-06T05:29:23;2.30;;;1.90;;
487;SDS011;16586;48.976;9.584;2023-01-06T05:31:49;2.40;;;2.20;;
487;SDS011;16586;48.976;9.584;2023-01-06T05:34:16;1.90;;;1.83;;
487;SDS011;16586;48.976;9.584;2023-01-06T05:36:43;1.90;;;1.70;;
487;SDS011;16586;48.976;9.584;2023-01-06T05:39:09;1.77;;;1.70;;
487;SDS011;16586;48.976;9.584;2023-01-06T05:41:36;2.80;;;1.88;;
487;SDS011;16586;48.976;9.584;2023-01-06T05:44:03;1.67;;;1.57;;
487;SDS011;16586;48.976;9.584;2023-01-06T05:46:31;2.00;;;1.40;;
487;SDS011;16586;48.976;9.584;2023-01-06T05:48:59;1.30;;;1.20;;
487;SDS011;16586;48.976;9.584;2023-01-06T05:51:26;1.80;;;1.70;;
487;SDS011;16586;48.976;9.584;2023-01-06T05:53:53;1.65;;;1.60;;
487;SDS011;16586;48.976;9.584;2023-01-06T05:56:21;1.80;;;1.70;;
487;SDS011;16586;48.976;9.584;2023-01-06T05:58:49;1.60;;;1.50;;
487;SDS011;16586;48.976;9.584;2023-01-06T06:01:17;1.60;;;1.60;;
487;SDS011;16586;48.976;9.584;2023-01-06T06:03:46;2.00;;;1.60;;
487;SDS011;16586;48.976;9.584;2023-01-06T06:06:13;1.73;;;1.40;;
487;SDS011;16586;48.976;9.584;2023-01-06T06:08:40;1.87;;;1.47;;
487;SDS011;16586;48.976;9.584;2023-01-06T06:11:08;2.00;;;1.55;;
487;SDS011;16586;48.976;9.584;2023-01-06T06:13:36;1.40;;;1.20;;
487;SDS011;16586;48.976;9.584;2023-01-06T06:16:03;2.13;;;1.20;;
487;SDS011;16586;48.976;9.584;2023-01-06T06:18:31;1.45;;;1.15;;
487;SDS011;16586;48.976;9.584;2023-01-06T06:21:00;1.40;;;1.33;;
487;SDS011;16586;48.976;9.584;2023-01-06T06:23:28;1.40;;;1.40;;
487;SDS011;16586;48.976;9.584;2023-01-06T06:25:54;1.23;;;1.13;;
487;SDS011;16586;48.976;9.584;2023-01-06T06:28:21;1.60;;;1.40;;
487;SDS011;16586;48.976;9.584;2023-01-06T06:30:48;1.40;;;1.30;;
487;SDS011;16586;48.976;9.584;2023-01-06T06:33:15;1.50;;;1.50;;
487;SDS011;16586;48.976;9.584;2023-01-06T06:35:42;1.60;;;1.30;;
487;SDS011;16586;48.976;9.584;2023-01-06T06:38:10;1.50;;;1.40;;
487;SDS011;16586;48.976;9.584;2023-01-06T06:40:36;4.15;;;3.22;;
487;SDS011;16586;48.976;9.584;2023-01-06T06:43:03;1.45;;;1.40;;
487;SDS011;16586;48.976;9.584;2023-01-06T06:45:30;1.95;;;1.65;;
487;SDS011;16586;48.976;9.584;2023-01-06T06:47:57;1.38;;;1.20;;
487;SDS011;16586;48.976;9.584;2023-01-06T06:50:24;1.50;;;1.40;;
487;SDS011;16586;48.976;9.584;2023-01-06T06:52:50;1.48;;;1.17;;
487;SDS011;16586;48.976;9.584;2023-01-06T06:55:21;1.70;;;1.50;;
487;SDS011;16586;48.976;9.584;2023-01-06T06:57:47;1.50;;;1.40;;
487;SDS011;16586;48.976;9.584;2023-01-06T07:00:14;1.60;;;1.50;;
487;SDS011;16586;48.976;9.584;2023-01-06T07:02:41;1.60;;;1.50;;
487;SDS011;16586;48.976;9.584;2023-01-06T07:05:08;1.90;;;1.80;;
487;SDS011;16586;48.976;9.584;2023-01-06T07:07:35;2.00;;;1.75;;
487;SDS011;16586;48.976;9.584;2023-01-06T07:10:02;1.50;;;1.40;;
487;SDS011;16586;48.976;9.584;2023-01-06T07:12:30;1.60;;;1.52;;
487;SDS011;16586;48.976;9.584;2023-01-06T07:14:57;3.10;;;2.90;;
487;SDS011;16586;48.976;9.584;2023-01-06T07:17:24;4.10;;;3.90;;
487;SDS011;16586;48.976;9.584;2023-01-06T07:19:51;2.40;;;2.20;;
487;SDS011;16586;48.976;9.584;2023-01-06T07:22:18;3.80;;;2.47;;
487;SDS011;16586;48.976;9.584;2023-01-06T07:24:45;4.30;;;4.03;;
487;SDS011;16586;48.976;9.584;2023-01-06T07:27:15;1.92;;;1.83;;
487;SDS011;16586;48.976;9.584;2023-01-06T07:29:43;1.92;;;1.83;;
487;SDS011;16586;48.976;9.584;2023-01-06T07:32:10;2.00;;;1.90;;
487;SDS011;16586;48.976;9.584;2023-01-06T07:34:38;1.60;;;1.50;;
487;SDS011;16586;48.976;9.584;2023-01-06T07:37:05;1.70;;;1.60;;
487;SDS011;16586;48.976;9.584;2023-01-06T07:39:32;2.20;;;2.00;;
487;SDS011;16586;48.976;9.584;2023-01-06T07:41:59;2.80;;;2.60;;
487;SDS011;16586;48.976;9.584;2023-01-06T07:44:26;1.93;;;1.83;;
487;SDS011;16586;48.976;9.584;2023-01-06T07:46:54;1.80;;;1.77;;
487;SDS011;16586;48.976;9.584;2023-01-06T07:49:21;2.30;;;2.10;;
487;SDS011;16586;48.976;9.584;2023-01-06T07:51:48;2.00;;;1.60;;
487;SDS011;16586;48.976;9.584;2023-01-06T07:54:14;1.60;;;1.60;;
487;SDS011;16586;48.976;9.584;2023-01-06T07:56:41;2.70;;;2.50;;
487;SDS011;16586;48.976;9.584;2023-01-06T07:59:08;2.42;;;2.22;;
487;SDS011;16586;48.976;9.584;2023-01-06T08:01:37;2.40;;;2.30;;
487;SDS011;16586;48.976;9.584;2023-01-06T08:04:05;2.00;;;1.90;;
487;SDS011;16586;48.976;9.584;2023-01-06T08:06:32;1.58;;;1.08;;
487;SDS011;16586;48.976;9.584;2023-01-06T08:08:59;1.35;;;0.90;;
487;SDS011;16586;48.976;9.584;2023-01-06T08:11:29;1.50;;;0.80;;
487;SDS011;16586;48.976;9.584;2023-01-06T08:13:55;1.10;;;0.90;;
487;SDS011;16586;48.976;9.584;2023-01-06T08:16:22;1.45;;;1.17;;
487;SDS011;16586;48.976;9.584;2023-01-06T08:18:49;1.30;;;1.00;;
487;SDS011;16586;48.976;9.584;2023-01-06T08:21:17;1.40;;;1.00;;
487;SDS011;16586;48.976;9.584;2023-01-06T08:23:44;1.00;;;0.70;;
487;SDS011;16586;48.976;9.584;2023-01-06T08:26:11;1.33;;;0.75;;
487;SDS011;16586;48.976;9.584;2023-01-06T08:28:39;1.30;;;0.80;;
487;SDS011;16586;48.976;9.584;2023-01-06T08:31:07;1.50;;;1.10;;
487;SDS011;16586;48.976;9.584;2023-01-06T08:33:34;1.05;;;0.70;;
487;SDS011;16586;48.976;9.584;2023-01-06T08:36:02;1.42;;;0.80;;
487;SDS011;16586;48.976;9.584;2023-01-06T08:38:32;0.80;;;0.60;;
487;SDS011;16586;48.976;9.584;2023-01-06T08:41:00;0.90;;;0.60;;
487;SDS011;16586;48.976;9.584;2023-01-06T08:43:27;1.30;;;0.80;;
487;SDS011;16586;48.976;9.584;2023-01-06T08:45:59;1.42;;;0.73;;
487;SDS011;16586;48.976;9.584;2023-01-06T08:48:27;1.00;;;0.60;;
487;SDS011;16586;48.976;9.584;2023-01-06T08:51:00;0.90;;;0.70;;
487;SDS011;16586;48.976;9.584;2023-01-06T08:53:28;0.98;;;0.63;;
487;SDS011;16586;48.976;9.584;2023-01-06T08:55:56;1.20;;;0.70;;
487;SDS011;16586;48.976;9.584;2023-01-06T08:58:26;1.30;;;0.70;;
487;SDS011;16586;48.976;9.584;2023-01-06T09:00:55;1.90;;;1.00;;
487;SDS011;16586;48.976;9.584;2023-01-06T09:03:22;0.90;;;0.70;;
487;SDS011;16586;48.976;9.584;2023-01-06T09:05:52;1.05;;;0.65;;
487;SDS011;16586;48.976;9.584;2023-01-06T09:08:19;1.27;;;0.90;;
487;SDS011;16586;48.976;9.584;2023-01-06T09:10:46;1.10;;;0.60;;
487;SDS011;16586;48.976;9.584;2023-01-06T09:13:14;1.70;;;1.00;;
487;SDS011;16586;48.976;9.584;2023-01-06T09:15:42;1.10;;;0.80;;
487;SDS011;16586;48.976;9.584;2023-01-06T09:18:12;1.10;;;0.70;;
487;SDS011;16586;48.976;9.584;2023-01-06T09:20:39;1.23;;;0.60;;
487;SDS011;16586;48.976;9.584;2023-01-06T09:23:06;1.20;;;0.57;;
487;SDS011;16586;48.976;9.584;2023-01-06T09:25:33;1.00;;;0.60;;
487;SDS011;16586;48.976;9.584;2023-01-06T09:28:00;1.00;;;0.60;;
487;SDS011;16586;48.976;9.584;2023-01-06T09:30:28;1.10;;;0.80;;
487;SDS011;16586;48.976;9.584;2023-01-06T09:32:55;1.10;;;0.80;;
487;SDS011;16586;48.976;9.584;2023-01-06T09:35:21;1.25;;;0.70;;
487;SDS011;16586;48.976;9.584;2023-01-06T09:37:48;1.75;;;0.85;;
487;SDS011;16586;48.976;9.584;2023-01-06T09:40:15;1.20;;;0.82;;
487;SDS011;16586;48.976;9.584;2023-01-06T09:42:47;1.10;;;0.70;;
487;SDS011;16586;48.976;9.584;2023-01-06T09:45:29;2.33;;;0.90;;
487;SDS011;16586;48.976;9.584;2023-01-06T09:48:03;1.70;;;0.80;;
487;SDS011;16586;48.976;9.584;2023-01-06T09:50:37;1.02;;;0.52;;
487;SDS011;16586;48.976;9.584;2023-01-06T09:53:09;1.08;;;0.60;;
487;SDS011;16586;48.976;9.584;2023-01-06T09:55:41;1.00;;;0.60;;
487;SDS011;16586;48.976;9.584;2023-01-06T09:58:11;2.10;;;1.10;;
487;SDS011;16586;48.976;9.584;2023-01-06T10:00:42;1.00;;;0.63;;
487;SDS011;16586;48.976;9.584;2023-01-06T10:03:11;1.10;;;0.90;;
487;SDS011;16586;48.976;9.584;2023-01-06T10:05:41;1.87;;;1.10;;
487;SDS011;16586;48.976;9.584;2023-01-06T10:08:21;1.00;;;0.77;;
487;SDS011;16586;48.976;9.584;2023-01-06T10:10:58;1.73;;;0.80;;
487;SDS011;16586;48.976;9.584;2023-01-06T10:13:40;1.23;;;0.82;;
487;SDS011;16586;48.976;9.584;2023-01-06T10:16:15;0.90;;;0.70;;
487;SDS011;16586;48.976;9.584;2023-01-06T10:18:50;1.20;;;0.80;;
487;SDS011;16586;48.976;9.584;2023-01-06T10:21:23;1.27;;;0.80;;
487;SDS011;16586;48.976;9.584;2023-01-06T10:24:07;1.10;;;0.57;;
487;SDS011;16586;48.976;9.584;2023-01-06T10:26:52;1.50;;;0.77;;
487;SDS011;16586;48.976;9.584;2023-01-06T10:29:22;1.30;;;0.90;;
487;SDS011;16586;48.976;9.584;2023-01-06T10:31:54;1.40;;;0.65;;
487;SDS011;16586;48.976;9.584;2023-01-06T10:34:27;1.20;;;0.57;;
487;SDS011;16586;48.976;9.584;2023-01-06T10:36:56;1.05;;;0.70;;
487;SDS011;16586;48.976;9.584;2023-01-06T10:39:28;1.40;;;0.80;;
487;SDS011;16586;48.976;9.584;2023-01-06T10:42:03;3.58;;;3.38;;
487;SDS011;16586;48.976;9.584;2023-01-06T10:44:54;1.60;;;0.90;;
487;SDS011;16586;48.976;9.584;2023-01-06T10:47:24;4.38;;;4.07;;
487;SDS011;16586;48.976;9.584;2023-01-06T10:49:54;2.40;;;2.05;;
487;SDS011;16586;48.976;9.584;2023-01-06T10:52:21;1.00;;;0.70;;
487;SDS011;16586;48.976;9.584;2023-01-06T10:54:49;1.10;;;0.80;;
487;SDS011;16586;48.976;9.584;2023-01-06T10:57:20;1.20;;;0.80;;
487;SDS011;16586;48.976;9.584;2023-01-06T11:00:07;1.30;;;0.90;;
487;SDS011;16586;48.976;9.584;2023-01-06T11:02:44;0.90;;;0.80;;
487;SDS011;16586;48.976;9.584;2023-01-06T11:05:30;2.10;;;1.00;;
487;SDS011;16586;48.976;9.584;2023-01-06T11:08:02;1.27;;;0.80;;
487;SDS011;16586;48.976;9.584;2023-01-06T11:10:32;1.30;;;0.90;;
487;SDS011;16586;48.976;9.584;2023-01-06T11:13:02;0.90;;;0.60;;
487;SDS011;16586;48.976;9.584;2023-01-06T11:15:35;1.50;;;0.80;;
487;SDS011;16586;48.976;9.584;2023-01-06T11:18:17;1.00;;;0.67;;
487;SDS011;16586;48.976;9.584;2023-01-06T11:20:59;0.90;;;0.60;;
487;SDS011;16586;48.976;9.584;2023-01-06T11:23:28;0.90;;;0.50;;
487;SDS011;16586;48.976;9.584;2023-01-06T11:25:59;1.10;;;0.60;;
487;SDS011;16586;48.976;9.584;2023-01-06T11:28:27;0.90;;;0.50;;
487;SDS011;16586;48.976;9.584;2023-01-06T11:30:56;1.10;;;0.50;;
487;SDS011;16586;48.976;9.584;2023-01-06T11:33:27;1.20;;;0.60;;
487;SDS011;16586;48.976;9.584;2023-01-06T11:35:55;0.90;;;0.50;;
487;SDS011;16586;48.976;9.584;2023-01-06T11:38:28;1.10;;;0.70;;
487;SDS011;16586;48.976;9.584;2023-01-06T11:40:55;1.00;;;0.60;;
487;SDS011;16586;48.976;9.584;2023-01-06T11:43:23;0.90;;;0.50;;
487;SDS011;16586;48.976;9.584;2023-01-06T11:45:56;1.10;;;0.80;;
487;SDS011;16586;48.976;9.584;2023-01-06T11:48:28;1.00;;;0.50;;
487;SDS011;16586;48.976;9.584;2023-01-06T11:50:58;1.10;;;0.70;;
487;SDS011;16586;48.976;9.584;2023-01-06T11:53:27;0.80;;;0.40;;
487;SDS011;16586;48.976;9.584;2023-01-06T11:55:57;0.88;;;0.57;;
487;SDS011;16586;48.976;9.584;2023-01-06T11:58:43;1.20;;;0.40;;
487;SDS011;16586;48.976;9.584;2023-01-06T12:01:18;1.55;;;0.90;;
487;SDS011;16586;48.976;9.584;2023-01-06T12:03:53;1.15;;;0.80;;
487;SDS011;16586;48.976;9.584;2023-01-06T12:06:30;0.85;;;0.43;;
487;SDS011;16586;48.976;9.584;2023-01-06T12:09:00;1.13;;;0.90;;
487;SDS011;16586;48.976;9.584;2023-01-06T12:11:33;1.33;;;0.77;;
487;SDS011;16586;48.976;9.584;2023-01-06T12:14:07;1.00;;;0.70;;
487;SDS011;16586;48.976;9.584;2023-01-06T12:16:41;0.80;;;0.40;;
487;SDS011;16586;48.976;9.584;2023-01-06T12:19:21;1.38;;;0.90;;
487;SDS011;16586;48.976;9.584;2023-01-06T12:21:52;1.80;;;0.70;;
487;SDS011;16586;48.976;9.584;2023-01-06T12:24:20;0.90;;;0.43;;
487;SDS011;16586;48.976;9.584;2023-01-06T12:26:48;0.80;;;0.50;;
487;SDS011;16586;48.976;9.584;2023-01-06T12:29:16;0.90;;;0.60;;
487;SDS011;16586;48.976;9.584;2023-01-06T12:31:46;1.00;;;0.57;;
487;SDS011;16586;48.976;9.584;2023-01-06T12:34:27;1.20;;;0.60;;
487;SDS011;16586;48.976;9.584;2023-01-06T12:36:58;1.30;;;1.20;;
487;SDS011;16586;48.976;9.584;2023-01-06T12:39:35;0.90;;;0.60;;
487;SDS011;16586;48.976;9.584;2023-01-06T12:42:12;1.30;;;1.25;;
487;SDS011;16586;48.976;9.584;2023-01-06T12:44:48;1.10;;;0.80;;
487;SDS011;16586;48.976;9.584;2023-01-06T12:47:19;1.17;;;1.08;;
487;SDS011;16586;48.976;9.584;2023-01-06T12:49:54;0.73;;;0.40;;
487;SDS011;16586;48.976;9.584;2023-01-06T12:52:26;1.30;;;0.40;;
487;SDS011;16586;48.976;9.584;2023-01-06T12:54:58;1.03;;;0.80;;
487;SDS011;16586;48.976;9.584;2023-01-06T13:00:23;1.00;;;0.60;;
487;SDS011;16586;48.976;9.584;2023-01-06T13:03:17;1.00;;;0.40;;
487;SDS011;16586;48.976;9.584;2023-01-06T13:06:14;1.48;;;1.27;;
487;SDS011;16586;48.976;9.584;2023-01-06T13:09:02;1.15;;;0.90;;
487;SDS011;16586;48.976;9.584;2023-01-06T13:11:42;1.05;;;0.70;;
487;SDS011;16586;48.976;9.584;2023-01-06T13:14:22;1.03;;;0.67;;
487;SDS011;16586;48.976;9.584;2023-01-06T13:16:55;0.90;;;0.60;;
487;SDS011;16586;48.976;9.584;2023-01-06T13:19:28;1.00;;;0.65;;
487;SDS011;16586;48.976;9.584;2023-01-06T13:22:07;0.85;;;0.50;;
487;SDS011;16586;48.976;9.584;2023-01-06T13:24:40;1.17;;;0.80;;
487;SDS011;16586;48.976;9.584;2023-01-06T13:27:27;0.80;;;0.60;;
487;SDS011;16586;48.976;9.584;2023-01-06T13:30:16;0.80;;;0.50;;
487;SDS011;16586;48.976;9.584;2023-01-06T13:32:58;1.20;;;0.50;;
487;SDS011;16586;48.976;9.584;2023-01-06T13:35:51;0.80;;;0.40;;
487;SDS011;16586;48.976;9.584;2023-01-06T13:38:32;1.10;;;0.60;;
487;SDS011;16586;48.976;9.584;2023-01-06T13:41:18;1.00;;;0.50;;
487;SDS011;16586;48.976;9.584;2023-01-06T13:43:49;0.90;;;0.50;;
487;SDS011;16586;48.976;9.584;2023-01-06T13:46:18;0.90;;;0.70;;
487;SDS011;16586;48.976;9.584;2023-01-06T13:48:49;0.90;;;0.50;;
487;SDS011;16586;48.976;9.584;2023-01-06T13:51:19;1.00;;;0.70;;
487;SDS011;16586;48.976;9.584;2023-01-06T13:53:49;0.90;;;0.60;;
487;SDS011;16586;48.976;9.584;2023-01-06T13:56:22;0.90;;;0.52;;
487;SDS011;16586;48.976;9.584;2023-01-06T13:58:49;1.02;;;0.57;;
487;SDS011;16586;48.976;9.584;2023-01-06T14:01:38;1.00;;;0.70;;
487;SDS011;16586;48.976;9.584;2023-01-06T14:07:10;1.00;;;0.70;;
487;SDS011;16586;48.976;9.584;2023-01-06T14:09:37;0.80;;;0.50;;
487;SDS011;16586;48.976;9.584;2023-01-06T14:12:13;0.90;;;0.60;;
487;SDS011;16586;48.976;9.584;2023-01-06T14:14:43;0.90;;;0.47;;
487;SDS011;16586;48.976;9.584;2023-01-06T14:17:37;0.90;;;0.60;;
487;SDS011;16586;48.976;9.584;2023-01-06T14:20:16;1.00;;;0.50;;
487;SDS011;16586;48.976;9.584;2023-01-06T14:22:57;1.02;;;0.52;;
487;SDS011;16586;48.976;9.584;2023-01-06T14:25:27;1.10;;;0.70;;
487;SDS011;16586;48.976;9.584;2023-01-06T14:28:05;1.30;;;0.90;;
487;SDS011;16586;48.976;9.584;2023-01-06T14:30:47;1.20;;;0.90;;
487;SDS011;16586;48.976;9.584;2023-01-06T14:33:23;1.30;;;1.05;;
487;SDS011;16586;48.976;9.584;2023-01-06T14:35:58;0.90;;;0.60;;
487;SDS011;16586;48.976;9.584;2023-01-06T14:38:30;0.80;;;0.50;;
487;SDS011;16586;48.976;9.584;2023-01-06T14:41:00;1.20;;;0.70;;
487;SDS011;16586;48.976;9.584;2023-01-06T14:43:33;0.90;;;0.50;;
487;SDS011;16586;48.976;9.584;2023-01-06T14:46:07;0.80;;;0.40;;
487;SDS011;16586;48.976;9.584;2023-01-06T14:48:44;0.85;;;0.50;;
487;SDS011;16586;48.976;9.584;2023-01-06T14:51:16;0.80;;;0.55;;
487;SDS011;16586;48.976;9.584;2023-01-06T14:53:46;1.40;;;0.60;;
487;SDS011;16586;48.976;9.584;2023-01-06T14:56:18;1.20;;;0.60;;
487;SDS011;16586;48.976;9.584;2023-01-06T14:58:46;1.10;;;0.70;;
487;SDS011;16586;48.976;9.584;2023-01-06T15:01:18;1.30;;;0.63;;
487;SDS011;16586;48.976;9.584;2023-01-06T15:03:53;0.85;;;0.55;;
487;SDS011;16586;48.976;9.584;2023-01-06T15:06:22;0.80;;;0.50;;
487;SDS011;16586;48.976;9.584;2023-01-06T15:08:49;1.00;;;0.63;;
487;SDS011;16586;48.976;9.584;2023-01-06T15:11:24;1.20;;;0.80;;
487;SDS011;16586;48.976;9.584;2023-01-06T15:13:52;2.10;;;0.85;;
487;SDS011;16586;48.976;9.584;2023-01-06T15:16:20;1.20;;;0.90;;
487;SDS011;16586;48.976;9.584;2023-01-06T15:18:55;1.10;;;1.10;;
487;SDS011;16586;48.976;9.584;2023-01-06T15:21:22;1.10;;;1.00;;
487;SDS011;16586;48.976;9.584;2023-01-06T15:23:49;2.15;;;1.98;;
487;SDS011;16586;48.976;9.584;2023-01-06T15:26:19;3.73;;;3.53;;
487;SDS011;16586;48.976;9.584;2023-01-06T15:28:59;10.33;;;9.83;;
487;SDS011;16586;48.976;9.584;2023-01-06T15:31:28;11.07;;;10.48;;
487;SDS011;16586;48.976;9.584;2023-01-06T15:33:59;15.50;;;14.70;;
487;SDS011;16586;48.976;9.584;2023-01-06T15:36:30;4.00;;;2.70;;
487;SDS011;16586;48.976;9.584;2023-01-06T15:38:59;1.52;;;1.13;;
487;SDS011;16586;48.976;9.584;2023-01-06T15:41:27;3.00;;;2.40;;
487;SDS011;16586;48.976;9.584;2023-01-06T15:43:58;1.00;;;0.80;;